Latest Weather Observations for Browse Island

IDW60801

Issued at 5:02 am WST Friday 3 July 2015 (issued every 30 minutes, with the page automatically refreshed every 10 minutes)

About weather observations | Map of weather stations | Latest weather observations for WA | Other Formats
Station Details ID: 200784 Name: BROWSE ISLAND Lat: -14.11 Lon: 123.55 Height: 3.7 m
Data from the previous 72 hours. | See also: Recent months for locations in Western Australia
Date/Time
WST
Temp
°C
App
Temp
°C
Dew
Point
Rel
Hum
%
Delta-T
°C
Wind Press
QNH
hPa
Press
MSL
hPa
Rain
since 9 am
mm
Dir
 
Spd
km/h
Gust
km/h
Spd
kts
Gust
kts
03/05:00am 26.9 - - - - SSE 24 26 13 14 1014.0 1014.3 -
03/04:30am 27.0 - - - - SSE 22 26 12 14 1014.0 - -
03/04:00am 26.6 - - - - SSE 20 - 11 - 1014.0 1014.7 -
03/03:30am 27.0 - - - - SSE 19 - 10 - 1014.0 - -
03/03:00am 26.7 - - - - SSE 17 - 9 - 1015.0 1015.1 -
03/02:30am 27.0 - - - - SSE 15 20 8 11 1015.0 - -
03/02:00am 26.6 - - - - SSE 15 - 8 - 1015.0 1015.5 -
03/01:30am 27.0 - - - - SE 13 - 7 - 1016.0 - -
03/01:00am 26.4 - - - - SSE 13 - 7 - 1016.0 1016.2 -
03/12:30am 27.0 - - - - SE 13 - 7 - 1016.0 - -
03/12:00am 26.5 - - - - SE 13 13 7 7 1016.0 1016.6 -
 
Date/Time
WST
Temp
°C
App
Temp
°C
Dew
Point
Rel
Hum
%
Delta-T
°C
Wind Press
QNH
hPa
Press
MSL
hPa
Rain
since 9 am
mm
Dir
 
Spd
km/h
Gust
km/h
Spd
kts
Gust
kts
02/11:30pm 27.0 - - - - SE 13 - 7 - 1016.0 - -
02/11:00pm 26.4 - - - - SE 13 - 7 - 1016.0 1016.8 -
02/10:30pm 27.0 - - - - SE 13 - 7 - 1017.0 - -
02/10:00pm 26.6 - - - - SE 13 - 7 - 1017.0 1017.0 -
02/09:30pm 27.0 - - - - SSE 11 - 6 - 1017.0 - -
02/09:00pm 26.4 - - - - SE 11 - 6 - 1016.0 1016.7 -
02/08:30pm 27.0 - - - - E 9 - 5 - 1016.0 - -
02/08:00pm 26.4 - - - - CALM 0 - 0 - 1016.0 1016.5 -
02/07:30pm 27.0 - - - - SE 2 - 1 - 1016.0 - -
02/07:00pm 26.6 - - - - SE 7 - 4 - 1016.0 1016.0 -
02/06:30pm 27.0 - - - - E 7 - 4 - 1015.0 - -
02/06:00pm 26.6 - - - - E 9 11 5 6 1015.0 1015.4 -
02/05:30pm 27.0 - - - - E 9 - 5 - 1015.0 - -
02/05:00pm 27.0 - - - - E 11 - 6 - 1015.0 1015.0 -
02/04:30pm 28.0 - - - - E 13 - 7 - 1014.0 - -
02/04:00pm 27.9 - - - - E 15 - 8 - 1014.0 1014.6 -
02/03:30pm 28.0 - - - - E 17 - 9 - 1014.0 - -
02/03:00pm 28.6 - - - - E 17 - 9 - 1014.0 1014.5 -
02/02:30pm 28.0 - - - - ESE 17 - 9 - 1014.0 - -
02/02:00pm 27.9 - - - - ESE 20 - 11 - 1014.0 1014.8 -
02/01:30pm 28.0 - - - - ESE 20 - 11 - 1015.0 - -
02/01:00pm 28.7 - - - - ESE 22 - 12 - 1015.0 1015.6 -
02/12:30pm 29.0 - - - - ESE 22 - 12 - 1016.0 - -
02/12:00pm 29.0 - - - - ESE 20 - 11 - 1016.0 1016.5 -
02/11:30am 28.0 - - - - ESE 19 - 10 - 1016.0 - -
02/11:00am 28.1 - - - - ESE 17 - 9 - 1017.0 1017.4 -
02/10:30am 28.0 - - - - ESE 15 - 8 - 1017.0 - -
02/10:00am 28.6 - - - - SE 13 - 7 - 1017.0 1017.8 -
02/09:30am 28.0 - - - - ESE 15 - 8 - 1018.0 - -
02/09:00am 27.7 - - - - ESE 17 - 9 - 1018.0 1018.3 -
02/08:30am 28.0 - - - - E 15 - 8 - 1018.0 - -
02/08:00am 27.7 - - - - E 15 - 8 - 1018.0 1018.4 -
02/07:30am 27.0 - - - - ESE 15 - 8 - 1018.0 - -
02/07:00am 27.0 - - - - ESE 15 - 8 - 1017.0 1017.8 -
02/06:30am 27.0 - - - - ESE 17 - 9 - 1017.0 - -
02/06:00am 26.4 - - - - SE 15 17 8 9 1017.0 1017.3 -
02/05:30am 27.0 - - - - SE 13 - 7 - 1017.0 - -
02/05:00am 26.6 - - - - SE 15 - 8 - 1017.0 1016.9 -
02/04:30am 27.0 - - - - SE 15 - 8 - 1017.0 - -
02/04:00am 26.5 - - - - SE 15 - 8 - 1017.0 1016.9 -
02/03:30am 27.0 - - - - SE 13 - 7 - 1016.0 - -
02/03:00am 26.9 - - - - ESE 15 - 8 - 1016.0 1016.8 -
02/02:30am 27.0 - - - - ESE 17 - 9 - 1017.0 - -
02/02:00am 26.9 - - - - E 17 - 9 - 1017.0 1017.1 -
02/01:30am 27.0 - - - - E 19 - 10 - 1017.0 - -
02/01:00am 27.0 - - - - ESE 17 - 9 - 1017.0 1017.4 -
02/12:30am 27.0 - - - - ESE 19 - 10 - 1017.0 - -
02/12:00am 26.7 - - - - ESE 19 - 10 - 1017.0 1017.5 -
 
Date/Time
WST
Temp
°C
App
Temp
°C
Dew
Point
Rel
Hum
%
Delta-T
°C
Wind Press
QNH
hPa
Press
MSL
hPa
Rain
since 9 am
mm
Dir
 
Spd
km/h
Gust
km/h
Spd
kts
Gust
kts
01/11:30pm 27.0 - - - - SE 19 - 10 - 1017.0 - -
01/11:00pm 27.0 - - - - SE 15 - 8 - 1017.0 1017.5 -
01/10:30pm 27.0 - - - - SE 15 - 8 - 1017.0 - -
01/10:00pm 27.0 - - - - SSE 11 - 6 - 1017.0 1017.6 -
01/09:30pm 27.0 - - - - SSE 9 - 5 - 1017.0 - -
01/09:00pm 27.0 - - - - CALM 0 - 0 - 1017.0 1017.4 -
01/08:30pm 27.0 - - - - ESE 7 - 4 - 1017.0 - -
01/08:00pm 27.0 - - - - ESE 13 - 7 - 1017.0 1017.3 -
01/07:30pm 27.0 - - - - ESE 15 - 8 - 1017.0 - -
01/07:00pm 26.9 - - - - ESE 15 - 8 - 1016.0 1016.6 -
01/06:30pm 27.0 - - - - ESE 15 - 8 - 1016.0 - -
01/06:00pm 26.6 - - - - ESE 15 - 8 - 1015.0 1015.8 -
01/05:30pm 27.0 - - - - ESE 17 - 9 - 1015.0 - -
01/05:00pm 26.9 - - - - ESE 17 - 9 - 1015.0 1015.3 -
01/04:30pm 27.0 - - - - SE 17 - 9 - 1015.0 - -
01/04:00pm 27.5 - - - - SE 19 - 10 - 1015.0 1015.0 -
01/03:30pm 28.0 - - - - SSE 20 - 11 - 1014.0 - -
01/03:00pm 27.4 - - - - SE 19 - 10 - 1015.0 1015.0 -
01/02:30pm 28.0 - - - - SE 20 - 11 - 1015.0 - -
01/02:00pm 28.0 - - - - ESE 22 - 12 - 1015.0 1015.2 -
01/01:30pm 28.0 - - - - ESE 22 - 12 - 1015.0 - -
01/01:00pm 28.2 - - - - SE 20 - 11 - 1016.0 1015.9 -
01/12:30pm 28.0 - - - - SE 17 - 9 - 1016.0 - -
01/12:00pm 28.1 - - - - SE 15 - 8 - 1016.0 1016.7 -
01/11:30am 28.0 - - - - SE 15 - 8 - 1017.0 - -
01/11:00am 28.3 - - - - SE 15 - 8 - 1017.0 1017.7 -
01/10:30am 28.0 - - - - ESE 15 - 8 - 1018.0 - -
01/10:00am 27.9 - - - - ESE 15 - 8 - 1018.0 1018.5 -
01/09:30am 28.0 - - - - ESE 17 - 9 - 1018.0 - -
01/09:00am 26.9 - - - - ESE 17 - 9 - 1018.0 1018.8 -
01/08:30am 27.0 - - - - ESE 15 - 8 - 1018.0 - -
01/08:00am 27.4 - - - - E 15 - 8 - 1018.0 1018.7 -
01/07:30am 27.0 - - - - E 15 - 8 - 1018.0 - -
01/07:00am 26.8 - - - - E 15 - 8 - 1018.0 1018.1 -
01/06:30am 26.0 - - - - E 15 - 8 - 1017.0 - -
01/06:00am 26.1 - - - - E 15 - 8 - 1017.0 1017.6 -
01/05:30am 26.0 - - - - E 15 - 8 - 1017.0 - -
01/05:00am 25.9 - - - - E 15 - 8 - 1017.0 1017.2 -
01/04:30am 26.0 - - - - E 15 - 8 - 1017.0 - -
01/04:00am 26.2 - - - - E 17 - 9 - 1017.0 1017.2 -
01/03:30am 27.0 - - - - E 19 - 10 - 1017.0 - -
01/03:00am 26.3 - - - - E 19 - 10 - 1017.0 1017.2 -
01/02:30am 27.0 - - - - E 19 - 10 - 1017.0 - -
01/02:00am 26.7 - - - - E 20 - 11 - 1017.0 1017.4 -
01/01:30am 27.0 - - - - E 22 - 12 - 1017.0 - -
01/01:00am 26.8 - - - - E 20 - 11 - 1017.0 1017.6 -
01/12:30am 27.0 - - - - E 20 - 11 - 1017.0 - -
01/12:00am 26.8 - - - - E 20 - 11 - 1017.0 1017.7 -
 
Date/Time
WST
Temp
°C
App
Temp
°C
Dew
Point
Rel
Hum
%
Delta-T
°C
Wind Press
QNH
hPa
Press
MSL
hPa
Rain
since 9 am
mm
Dir
 
Spd
km/h
Gust
km/h
Spd
kts
Gust
kts
30/11:30pm 27.0 - - - - E 17 - 9 - 1017.0 - -
30/11:00pm 26.8 - - - - E 17 - 9 - 1017.0 1017.7 -
30/10:30pm 27.0 - - - - ESE 15 - 8 - 1017.0 - -
30/10:00pm 26.6 - - - - ESE 17 - 9 - 1017.0 1017.6 -
30/09:30pm 27.0 - - - - ESE 15 - 8 - 1017.0 - -
30/09:00pm 26.6 - - - - ESE 15 - 8 - 1017.0 1017.5 -
30/08:30pm 27.0 - - - - ESE 15 - 8 - 1017.0 - -
30/08:00pm 26.5 - - - - ESE 13 - 7 - 1017.0 1017.0 -
30/07:30pm 27.0 - - - - ESE 17 - 9 - 1016.0 - -
30/07:00pm 26.4 - - - - ESE 20 - 11 - 1016.0 1016.5 -
30/06:30pm 27.0 - - - - ESE 20 - 11 - 1016.0 - -
30/06:00pm 26.6 - - - - ESE 20 - 11 - 1015.0 1015.8 -
30/05:30pm 27.0 - - - - ESE 20 - 11 - 1015.0 - -
30/05:00pm 26.6 - - - - ESE 20 - 11 - 1015.0 1015.5 -
30/04:30pm 27.0 - - - - ESE 20 - 11 - 1015.0 - -
30/04:00pm 27.2 - - - - ESE 22 - 12 - 1015.0 1015.0 -
30/03:30pm 27.0 - - - - ESE 20 - 11 - 1015.0 - -
30/03:00pm 27.8 - - - - ESE 19 - 10 - 1015.0 1014.9 -
30/02:30pm 28.0 - - - - ESE 19 - 10 - 1015.0 - -
30/02:00pm 27.6 - - - - ESE 15 - 8 - 1015.0 1015.1 -
30/01:30pm 28.0 - - - - ESE 15 - 8 - 1015.0 - -
30/01:00pm 27.5 - - - - ESE 15 - 8 - 1015.0 1015.8 -
30/12:30pm 28.0 - - - - ESE 13 - 7 - 1016.0 - -
30/12:00pm 27.8 - - - - ESE 13 - 7 - 1016.0 1016.7 -
30/11:30am 27.0 - - - - ESE 13 - 7 - 1017.0 - -
30/11:00am 28.0 - - - - ESE 13 - 7 - 1017.0 1017.4 -
30/10:30am 28.0 - - - - ESE 13 - 7 - 1017.0 - -
30/10:00am 27.1 - - - - E 13 - 7 - 1018.0 1018.0 -
30/09:30am 28.0 - - - - E 11 - 6 - 1018.0 - -
30/09:00am 27.8 - - - - E 11 - 6 - 1018.0 1018.3 -
30/08:30am 27.0 - - - - E 13 - 7 - 1018.0 - -
30/08:00am 26.8 - - - - ESE 11 - 6 - 1018.0 1018.1 -
30/07:30am 27.0 - - - - E 11 - 6 - 1017.0 - -
30/07:00am 26.4 - - - - E 9 - 5 - 1017.0 1017.4 -
30/06:30am 26.0 - - - - E 13 - 7 - 1017.0 - -
30/06:00am 25.7 - - - - E 13 - 7 - 1017.0 1016.9 -
30/05:30am 26.0 - - - - E 13 - 7 - 1016.0 - -

Other Formats:

Comma delimited format used in spreadsheet applications
http://www.bom.gov.au/fwo/IDW60801/IDW60801.94103.axf

JavaScript Object Notation format (JSON) in row-major order
http://www.bom.gov.au/fwo/IDW60801/IDW60801.94103.json